Terminal Aerodrome Forecast
Issued by NWS

Home | Current Version | Previous Version | Text Only | Print | Product List | Glossary On
Versions: 1 2 3 4 5 6 7 8 9 10 11 12 13 14 15 16 17 18 19 20 21 22 23 24
000
FTUS43 KDVN 231042 AAD
TAFBRL
TAF AMD
KBRL 231042Z 2311/2406 35012KT 6SM -RA BR SCT020 BKN035
     FM231500 32013G20KT P6SM SCT040 BKN250
     FM240000 29008KT P6SM SCT250=

USA.gov is the U.S. government's official web portal to all federal, state and local government web resources and services.